Time;durP1;ratioP1;P1;durP2;ratioP2;P2;SDS_P1;SDS_P2;PMS_P1;PMS_P2;Temp;Humidity;BMP_temperature;BMP_pressure;BME280_temperature;BME280_humidity;BME280_pressure;Samples;Min_cycle;Max_cycle;Signal;HPM_P1;HPM_P2
2023/08/23 00:02:14;;;;;;;9.47;4.60;;;18.80;99.90;;;;;;5265568;28;20189;-45
2023/08/23 00:04:45;;;;;;;7.53;5.10;;;18.80;99.90;;;;;;5264395;28;20642;-44
2023/08/23 00:07:15;;;;;;;7.20;4.37;;;18.80;99.90;;;;;;5265383;28;20875;-44
2023/08/23 00:09:46;;;;;;;6.23;3.83;;;18.70;99.90;;;;;;5266136;28;20263;-45
2023/08/23 00:12:17;;;;;;;5.33;3.97;;;18.70;99.90;;;;;;5265520;28;20250;-44
2023/08/23 00:14:48;;;;;;;4.90;4.50;;;18.70;99.90;;;;;;5251407;28;20816;-45
2023/08/23 00:17:18;;;;;;;6.87;4.73;;;18.70;99.90;;;;;;5270026;28;20197;-46
2023/08/23 00:19:49;;;;;;;6.97;4.57;;;18.70;99.90;;;;;;5268962;28;20634;-46
2023/08/23 00:22:20;;;;;;;10.83;4.80;;;18.70;99.90;;;;;;5268123;28;20229;-45
2023/08/23 00:24:50;;;;;;;5.93;4.70;;;18.70;99.90;;;;;;5264987;28;20677;-45
2023/08/23 00:27:21;;;;;;;4.80;4.40;;;18.60;99.90;;;;;;5262912;28;20175;-44
2023/08/23 00:29:52;;;;;;;6.40;4.43;;;18.60;99.90;;;;;;5267738;28;20584;-45
2023/08/23 00:32:23;;;;;;;7.77;5.20;;;18.60;99.90;;;;;;5263726;28;20288;-45
2023/08/23 00:34:53;;;;;;;7.03;4.40;;;18.50;99.90;;;;;;5270490;28;20201;-45
2023/08/23 00:37:24;;;;;;;7.70;4.40;;;18.50;99.90;;;;;;5267655;28;20247;-45
2023/08/23 00:39:54;;;;;;;6.03;4.40;;;18.50;99.90;;;;;;5269263;28;20170;-44
2023/08/23 00:42:25;;;;;;;5.83;4.37;;;18.50;99.90;;;;;;5249301;28;20195;-45
2023/08/23 00:44:56;;;;;;;8.60;5.30;;;18.50;99.90;;;;;;5269842;28;20197;-45
2023/08/23 00:47:26;;;;;;;5.40;4.90;;;18.50;99.90;;;;;;5269631;28;20181;-45
2023/08/23 00:49:57;;;;;;;11.90;5.40;;;18.50;99.90;;;;;;5267569;28;20181;-45
2023/08/23 00:52:29;;;;;;;7.50;4.37;;;18.50;99.90;;;;;;5268834;28;20201;-45
2023/08/23 00:54:59;;;;;;;7.93;4.97;;;18.50;99.90;;;;;;5271625;28;20186;-45
2023/08/23 00:57:30;;;;;;;8.37;4.13;;;18.40;99.90;;;;;;5272074;28;20493;-45
2023/08/23 01:00:01;;;;;;;13.73;5.07;;;18.40;99.90;;;;;;5273556;28;20354;-44
2023/08/23 01:02:33;;;;;;;6.23;4.83;;;18.40;99.90;;;;;;5271570;28;20288;-44
2023/08/23 01:05:04;;;;;;;6.37;4.57;;;18.40;99.90;;;;;;5272012;28;20438;-44
2023/08/23 01:07:49;;;;;;;6.27;4.90;;;18.40;99.90;;;;;;5276356;28;20518;-45
2023/08/23 01:10:39;;;;;;;5.87;5.30;;;18.40;99.90;;;;;;5273795;28;20234;-45
2023/08/23 01:13:18;;;;;;;9.67;5.50;;;18.40;99.90;;;;;;5273814;28;20469;-44
2023/08/23 01:15:51;;;;;;;9.37;4.67;;;18.30;99.90;;;;;;5267324;28;20482;-46
2023/08/23 01:18:24;;;;;;;7.57;5.37;;;18.30;99.90;;;;;;5266863;28;20477;-45
2023/08/23 01:20:55;;;;;;;8.57;5.27;;;18.30;99.90;;;;;;5269584;28;20960;-44
2023/08/23 01:23:27;;;;;;;12.90;5.20;;;18.20;99.90;;;;;;5269800;28;20427;-45
2023/08/23 01:25:58;;;;;;;4.67;4.27;;;18.20;99.90;;;;;;5272545;28;20458;-45
2023/08/23 01:28:28;;;;;;;5.53;4.87;;;18.20;99.90;;;;;;5268709;28;21218;-45
2023/08/23 01:31:03;;;;;;;13.80;5.60;;;18.20;99.90;;;;;;5253296;28;20210;-45
2023/08/23 01:33:41;;;;;;;16.23;5.43;;;18.20;99.90;;;;;;5253998;28;20200;-45
2023/08/23 01:36:30;;;;;;;7.23;5.30;;;18.20;99.90;;;;;;5270786;28;20425;-45
2023/08/23 01:39:01;;;;;;;7.73;5.80;;;18.20;99.90;;;;;;5274689;28;20459;-45
2023/08/23 01:41:32;;;;;;;6.47;4.93;;;18.10;99.90;;;;;;5265267;28;20944;-46
2023/08/23 01:44:04;;;;;;;8.83;5.30;;;18.10;99.90;;;;;;5271729;28;20435;-45
2023/08/23 01:46:35;;;;;;;6.90;5.27;;;18.10;99.90;;;;;;5269013;28;20177;-45
2023/08/23 01:49:06;;;;;;;4.87;4.43;;;18.50;99.90;;;;;;5268961;28;20439;-46
2023/08/23 01:51:36;;;;;;;5.13;4.17;;;18.10;99.90;;;;;;5269017;28;20451;-45
2023/08/23 01:54:07;;;;;;;13.73;5.27;;;18.10;99.90;;;;;;5268104;28;20181;-45
2023/08/23 01:56:38;;;;;;;5.00;4.60;;;18.10;99.90;;;;;;5269379;28;20185;-45
2023/08/23 01:59:09;;;;;;;6.37;5.27;;;18.00;99.90;;;;;;5269736;28;20206;-45
2023/08/23 02:01:40;;;;;;;13.90;5.23;;;18.00;99.90;;;;;;5268602;28;20257;-45
2023/08/23 02:04:13;;;;;;;8.00;4.70;;;18.00;99.90;;;;;;5269284;28;20625;-46
2023/08/23 02:06:44;;;;;;;12.90;4.70;;;17.90;99.90;;;;;;5264842;28;20208;-44
2023/08/23 02:09:14;;;;;;;6.40;4.93;;;17.90;99.90;;;;;;5265404;28;20412;-45
2023/08/23 02:11:45;;;;;;;11.53;4.90;;;18.00;99.90;;;;;;5268641;28;20512;-44
2023/08/23 02:14:17;;;;;;;7.30;5.30;;;18.00;99.90;;;;;;5266887;28;20174;-44
2023/08/23 02:16:48;;;;;;;10.30;5.17;;;18.00;99.90;;;;;;5271143;28;20634;-45
2023/08/23 02:19:18;;;;;;;7.10;4.60;;;18.00;99.90;;;;;;5274619;28;20430;-45
2023/08/23 02:21:51;;;;;;;6.63;4.80;;;17.90;99.90;;;;;;5271464;28;20339;-44
2023/08/23 02:24:22;;;;;;;7.90;4.93;;;17.90;99.90;;;;;;5270284;28;20177;-44
2023/08/23 02:26:52;;;;;;;5.43;4.80;;;17.90;99.90;;;;;;5268243;28;20459;-45
2023/08/23 02:29:23;;;;;;;7.93;5.30;;;17.90;99.90;;;;;;5270846;28;20188;-46
2023/08/23 02:31:54;;;;;;;9.37;4.90;;;17.90;99.90;;;;;;5269247;28;20261;-46
2023/08/23 02:34:24;;;;;;;8.50;5.20;;;17.80;99.90;;;;;;5275110;28;20232;-46
2023/08/23 02:36:55;;;;;;;12.43;5.30;;;17.80;99.90;;;;;;5271697;28;20193;-45
2023/08/23 02:39:26;;;;;;;7.70;4.87;;;17.80;99.90;;;;;;5251200;28;20265;-46
2023/08/23 02:41:57;;;;;;;8.37;5.63;;;17.80;99.90;;;;;;5271713;28;20201;-46
2023/08/23 02:44:28;;;;;;;5.70;5.20;;;17.80;99.90;;;;;;5266411;28;20448;-46
2023/08/23 02:46:58;;;;;;;10.10;5.50;;;17.80;99.90;;;;;;5269249;28;20174;-46
2023/08/23 02:49:29;;;;;;;7.20;5.33;;;17.80;99.90;;;;;;5270096;28;20177;-44
2023/08/23 02:52:00;;;;;;;8.17;4.60;;;17.80;99.90;;;;;;5268124;28;20266;-45
2023/08/23 02:54:30;;;;;;;6.30;5.70;;;17.80;99.90;;;;;;5274407;28;20177;-44
2023/08/23 02:57:01;;;;;;;8.20;5.20;;;17.70;99.90;;;;;;5268698;28;20564;-44
2023/08/23 02:59:32;;;;;;;9.07;5.60;;;17.70;99.90;;;;;;5273369;28;20182;-45
2023/08/23 03:02:02;;;;;;;6.50;5.20;;;17.70;99.90;;;;;;5269718;28;20253;-45
2023/08/23 03:04:33;;;;;;;6.90;5.03;;;17.70;99.90;;;;;;5269418;28;20772;-46
2023/08/23 03:07:04;;;;;;;7.03;5.00;;;17.70;99.90;;;;;;5268118;28;20596;-44
2023/08/23 03:09:34;;;;;;;13.27;4.67;;;17.70;99.90;;;;;;5275281;28;20550;-47
2023/08/23 03:12:06;;;;;;;10.53;5.67;;;17.60;99.90;;;;;;5272116;28;20206;-45
2023/08/23 03:14:37;;;;;;;7.13;5.20;;;17.60;99.90;;;;;;5272433;28;20192;-45
2023/08/23 03:17:07;;;;;;;12.17;5.80;;;17.60;99.90;;;;;;5264954;28;20483;-46
2023/08/23 03:19:38;;;;;;;6.13;5.30;;;17.60;99.90;;;;;;5262709;28;20220;-45
2023/08/23 03:22:09;;;;;;;9.37;5.63;;;17.60;99.90;;;;;;5263526;28;20668;-44
2023/08/23 03:24:39;;;;;;;6.70;6.00;;;17.60;99.90;;;;;;5264909;28;20178;-46
2023/08/23 03:27:10;;;;;;;8.97;6.40;;;17.60;99.90;;;;;;5252019;28;20710;-45
2023/08/23 03:29:46;;;;;;;8.27;6.33;;;17.60;99.90;;;;;;5269624;28;20181;-45
2023/08/23 03:32:17;;;;;;;7.77;4.73;;;17.50;99.90;;;;;;5273007;28;20218;-44
2023/08/23 03:34:47;;;;;;;9.07;5.20;;;17.60;99.90;;;;;;5272929;28;20514;-46
2023/08/23 03:37:18;;;;;;;9.63;5.20;;;17.50;99.90;;;;;;5280013;28;20459;-46
2023/08/23 03:39:49;;;;;;;6.67;5.57;;;17.50;99.90;;;;;;5260520;28;20262;-46
2023/08/23 03:42:19;;;;;;;10.20;5.63;;;17.50;99.90;;;;;;5276596;28;20205;-44
2023/08/23 03:44:50;;;;;;;11.60;6.20;;;17.50;99.90;;;;;;5269299;28;20185;-45
2023/08/23 03:47:21;;;;;;;10.03;5.33;;;17.50;99.90;;;;;;5265820;28;20185;-44
2023/08/23 03:49:51;;;;;;;5.30;4.80;;;17.50;99.90;;;;;;5269244;28;20188;-44
2023/08/23 03:52:22;;;;;;;8.03;5.53;;;17.50;99.90;;;;;;5268185;28;20580;-45
2023/08/23 03:54:53;;;;;;;10.27;6.03;;;17.50;99.90;;;;;;5268552;28;20510;-46
2023/08/23 03:57:24;;;;;;;7.80;5.30;;;17.50;99.90;;;;;;5270683;28;20201;-44
2023/08/23 03:59:54;;;;;;;13.50;6.10;;;17.50;99.90;;;;;;5263920;28;20205;-44
2023/08/23 04:02:25;;;;;;;11.87;6.47;;;17.50;99.90;;;;;;5264669;28;20247;-44
2023/08/23 04:04:56;;;;;;;7.20;5.87;;;17.50;99.90;;;;;;5265823;28;20602;-45
2023/08/23 04:07:26;;;;;;;9.03;6.30;;;17.50;99.90;;;;;;5264146;28;20191;-45
2023/08/23 04:09:57;;;;;;;10.37;6.93;;;17.40;99.90;;;;;;5265317;28;20184;-45
2023/08/23 04:12:30;;;;;;;8.60;6.43;;;17.40;99.90;;;;;;5261160;28;20201;-45
2023/08/23 04:15:00;;;;;;;5.87;5.47;;;17.50;99.90;;;;;;5264510;28;20189;-45
2023/08/23 04:17:31;;;;;;;10.80;5.43;;;17.50;99.90;;;;;;5268886;28;20467;-45
2023/08/23 04:20:03;;;;;;;8.73;5.50;;;17.50;99.90;;;;;;5270513;28;20182;-45
2023/08/23 04:22:33;;;;;;;13.03;6.77;;;17.50;99.90;;;;;;5268349;28;20224;-46
2023/08/23 04:25:04;;;;;;;6.70;5.73;;;17.60;99.90;;;;;;5270450;28;20455;-45
2023/08/23 04:27:35;;;;;;;8.67;6.90;;;17.60;99.90;;;;;;5268350;28;20189;-46
2023/08/23 04:30:07;;;;;;;6.40;5.70;;;17.60;99.90;;;;;;5271261;28;20181;-45
2023/08/23 04:32:37;;;;;;;8.30;5.00;;;17.70;99.90;;;;;;5271179;28;20205;-45
2023/08/23 04:35:08;;;;;;;9.93;5.80;;;17.70;99.90;;;;;;5275947;28;20463;-45
2023/08/23 04:37:40;;;;;;;7.47;5.90;;;17.70;99.90;;;;;;5271119;28;20209;-45
2023/08/23 04:40:11;;;;;;;6.93;5.20;;;17.80;99.90;;;;;;5272624;28;20479;-45
2023/08/23 04:42:42;;;;;;;9.17;5.87;;;17.90;99.90;;;;;;5259465;28;20434;-46
2023/08/23 04:45:12;;;;;;;5.40;4.90;;;17.90;99.90;;;;;;5273723;28;20441;-45
2023/08/23 04:47:43;;;;;;;13.53;5.00;;;18.00;99.90;;;;;;5271818;28;20192;-45
2023/08/23 04:50:14;;;;;;;6.10;5.50;;;18.10;99.90;;;;;;5269904;28;20258;-45
2023/08/23 04:52:44;;;;;;;7.77;5.27;;;18.10;99.90;;;;;;5274512;28;20204;-45
2023/08/23 04:55:16;;;;;;;6.97;4.43;;;18.20;99.90;;;;;;5255312;28;20186;-46
2023/08/23 04:57:47;;;;;;;5.77;4.73;;;18.30;99.90;;;;;;5271766;28;20208;-45
2023/08/23 05:00:18;;;;;;;11.73;4.53;;;18.40;99.90;;;;;;5269972;28;20423;-46
2023/08/23 05:02:48;;;;;;;10.03;4.70;;;18.50;99.90;;;;;;5271641;28;20208;-46
2023/08/23 05:05:19;;;;;;;5.10;4.60;;;18.70;99.90;;;;;;5265095;28;20307;-46
2023/08/23 05:07:50;;;;;;;6.50;4.40;;;18.90;99.90;;;;;;5262728;28;20563;-46
2023/08/23 05:10:20;;;;;;;5.03;4.60;;;19.00;99.90;;;;;;5267326;28;20193;-45
2023/08/23 05:12:52;;;;;;;8.10;4.83;;;19.20;99.90;;;;;;5274458;28;20205;-46
2023/08/23 05:15:22;;;;;;;6.17;4.00;;;19.50;99.90;;;;;;5266905;28;20256;-45
2023/08/23 05:17:53;;;;;;;9.13;5.80;;;19.70;99.90;;;;;;5269946;28;20479;-45
2023/08/23 05:20:24;;;;;;;7.80;5.03;;;20.70;99.90;;;;;;5264666;28;20208;-45
2023/08/23 05:22:54;;;;;;;10.27;6.20;;;22.00;99.90;;;;;;5271968;28;20577;-45
2023/08/23 05:25:26;;;;;;;4.93;4.50;;;22.50;99.90;;;;;;5269236;28;20182;-46
2023/08/23 05:27:57;;;;;;;5.77;3.90;;;23.10;99.90;;;;;;5273244;28;20197;-46
2023/08/23 05:30:28;;;;;;;3.87;3.50;;;24.70;99.90;;;;;;5260888;28;20436;-47
2023/08/23 05:32:59;;;;;;;6.60;4.27;;;26.40;99.90;;;;;;5264264;28;20309;-45
2023/08/23 05:35:29;;;;;;;5.03;3.73;;;28.00;98.10;;;;;;5263474;28;20670;-46
2023/08/23 05:38:00;;;;;;;5.83;3.23;;;29.30;91.60;;;;;;5265998;28;20221;-45
2023/08/23 05:40:31;;;;;;;4.93;3.07;;;30.40;82.60;;;;;;5269846;28;20182;-45
2023/08/23 05:43:02;;;;;;;3.50;3.20;;;31.40;73.30;;;;;;5272024;28;20191;-46
2023/08/23 05:45:33;;;;;;;4.00;3.70;;;32.20;66.10;;;;;;5250524;28;20429;-47
2023/08/23 05:48:04;;;;;;;3.37;2.90;;;32.70;58.90;;;;;;5267557;28;20329;-47
2023/08/23 05:50:34;;;;;;;3.20;2.90;;;33.20;57.30;;;;;;5268154;28;20571;-47
2023/08/23 05:53:10;;;;;;;3.93;3.63;;;33.90;54.50;;;;;;5269558;28;20197;-47
2023/08/23 05:55:40;;;;;;;3.00;2.80;;;34.30;51.90;;;;;;5269364;28;20180;-47
2023/08/23 05:58:11;;;;;;;2.60;2.50;;;34.60;51.00;;;;;;5269177;28;20215;-46
2023/08/23 06:00:42;;;;;;;5.47;3.07;;;35.00;49.40;;;;;;5266068;28;20311;-46
2023/08/23 06:03:16;;;;;;;3.60;2.90;;;35.50;47.90;;;;;;5266326;28;20196;-46
2023/08/23 06:05:47;;;;;;;4.00;3.70;;;35.90;46.40;;;;;;5269588;28;20551;-46
2023/08/23 06:08:18;;;;;;;4.73;3.30;;;36.10;45.50;;;;;;5262064;28;20177;-47
2023/08/23 06:10:49;;;;;;;5.85;2.70;;;36.30;44.80;;;;;;5268770;28;20213;-47
2023/08/23 06:13:20;;;;;;;6.72;3.22;;;36.70;44.10;;;;;;5267459;28;20587;-47
2023/08/23 06:15:50;;;;;;;3.80;3.42;;;37.30;42.70;;;;;;5271189;28;20181;-46
2023/08/23 06:18:21;;;;;;;4.00;3.30;;;37.70;41.00;;;;;;5270626;28;20296;-46
2023/08/23 06:20:52;;;;;;;8.13;3.85;;;37.70;40.90;;;;;;5269523;28;20212;-47
2023/08/23 06:23:23;;;;;;;2.88;2.63;;;38.00;40.40;;;;;;5265792;28;20188;-47
2023/08/23 06:26:02;;;;;;;4.03;2.92;;;38.40;39.40;;;;;;5265445;28;20207;-46
2023/08/23 06:28:33;;;;;;;2.67;2.60;;;38.50;39.00;;;;;;5267680;28;20209;-46
2023/08/23 06:31:04;;;;;;;3.53;3.22;;;38.80;38.30;;;;;;5269130;28;20239;-46
2023/08/23 06:33:34;;;;;;;12.55;3.60;;;39.00;38.00;;;;;;5270545;28;20226;-47
2023/08/23 06:36:09;;;;;;;5.10;2.97;;;39.00;37.10;;;;;;5268501;28;20217;-45
2023/08/23 06:38:41;;;;;;;3.95;3.33;;;39.40;37.00;;;;;;5270025;28;20227;-46
2023/08/23 06:41:12;;;;;;;3.25;2.95;;;39.60;36.50;;;;;;5266887;28;20193;-46
2023/08/23 06:43:46;;;;;;;6.05;4.13;;;39.50;35.80;;;;;;5265967;28;20177;-46
2023/08/23 06:46:17;;;;;;;2.92;2.72;;;39.20;36.20;;;;;;5263187;28;20627;-46
2023/08/23 06:48:47;;;;;;;7.82;3.08;;;39.90;35.70;;;;;;5266290;28;20276;-46
2023/08/23 06:51:18;;;;;;;8.38;3.13;;;39.90;35.00;;;;;;5264189;28;20201;-46
2023/08/23 06:53:54;;;;;;;7.10;3.00;;;40.20;34.90;;;;;;5266306;28;20593;-46
2023/08/23 06:56:26;;;;;;;2.95;2.75;;;40.60;34.30;;;;;;5274254;28;20540;-47
2023/08/23 06:58:56;;;;;;;3.75;3.17;;;40.50;34.10;;;;;;5266102;28;20639;-47
2023/08/23 07:01:27;;;;;;;3.63;3.00;;;40.90;33.60;;;;;;5268740;28;20224;-46
2023/08/23 07:03:58;;;;;;;9.15;3.60;;;41.10;33.20;;;;;;5266833;28;20177;-45
2023/08/23 07:06:31;;;;;;;2.95;2.78;;;41.30;32.90;;;;;;5266114;28;20189;-46
2023/08/23 07:09:01;;;;;;;3.00;2.80;;;41.50;32.60;;;;;;5263225;28;20192;-47
2023/08/23 07:11:32;;;;;;;2.72;2.58;;;41.90;31.90;;;;;;5269260;28;20200;-48
2023/08/23 07:14:03;;;;;;;4.95;2.83;;;42.20;31.50;;;;;;5267323;28;20192;-46
2023/08/23 07:16:34;;;;;;;2.38;2.28;;;42.30;31.40;;;;;;5266051;28;20176;-46
2023/08/23 07:19:05;;;;;;;5.00;3.38;;;42.40;30.90;;;;;;5265961;28;20581;-46
2023/08/23 07:21:36;;;;;;;4.45;2.33;;;42.50;30.20;;;;;;5269613;28;20235;-46
2023/08/23 07:24:06;;;;;;;3.95;3.03;;;42.70;30.00;;;;;;5266167;28;20189;-46
2023/08/23 07:26:37;;;;;;;8.85;3.42;;;42.70;30.00;;;;;;5263588;28;20211;-46
2023/08/23 07:29:09;;;;;;;3.63;2.60;;;42.60;29.90;;;;;;5262755;28;20191;-45
2023/08/23 07:31:39;;;;;;;1.90;1.80;;;43.00;29.40;;;;;;5265702;28;20288;-46
2023/08/23 07:34:10;;;;;;;3.40;2.65;;;43.00;29.40;;;;;;5252528;28;20676;-46
2023/08/23 07:36:42;;;;;;;2.15;2.00;;;42.40;29.60;;;;;;5267350;28;20424;-45
2023/08/23 07:39:13;;;;;;;5.07;2.42;;;42.50;29.30;;;;;;5263056;28;20205;-46
2023/08/23 07:41:44;;;;;;;4.00;2.10;;;42.50;29.20;;;;;;5270054;28;20200;-46
2023/08/23 07:44:14;;;;;;;3.10;2.38;;;42.60;28.80;;;;;;5265734;28;20177;-47
2023/08/23 07:46:45;;;;;;;2.75;2.55;;;42.50;29.10;;;;;;5267319;28;20177;-45
2023/08/23 07:49:16;;;;;;;4.43;1.88;;;42.50;29.10;;;;;;5266631;28;20180;-48
2023/08/23 07:51:48;;;;;;;4.13;1.67;;;42.20;28.70;;;;;;5250611;28;20223;-46
2023/08/23 07:54:19;;;;;;;2.35;1.50;;;42.70;28.20;;;;;;5267393;28;20677;-46
2023/08/23 07:56:49;;;;;;;5.72;2.25;;;42.00;28.70;;;;;;5265372;28;20190;-46
2023/08/23 07:59:20;;;;;;;2.50;2.30;;;41.90;28.30;;;;;;5269050;28;20204;-47
2023/08/23 08:01:51;;;;;;;4.30;1.88;;;41.70;28.90;;;;;;5273323;28;20197;-46
2023/08/23 08:04:21;;;;;;;3.38;2.05;;;42.10;28.40;;;;;;5272844;28;20189;-47
2023/08/23 08:06:52;;;;;;;4.97;2.00;;;42.10;28.30;;;;;;5262043;28;20177;-47
2023/08/23 08:09:23;;;;;;;3.40;2.05;;;41.80;28.70;;;;;;5271774;28;20181;-46
2023/08/23 08:11:54;;;;;;;1.90;1.80;;;42.00;29.00;;;;;;5267324;28;20209;-46
2023/08/23 08:14:24;;;;;;;3.50;1.83;;;41.90;28.70;;;;;;5268256;28;20181;-46
2023/08/23 08:16:55;;;;;;;3.63;2.13;;;41.80;28.70;;;;;;5270156;28;20177;-45
2023/08/23 08:19:26;;;;;;;5.93;2.15;;;41.10;29.40;;;;;;5272492;28;20625;-46
2023/08/23 08:21:57;;;;;;;5.70;2.33;;;40.90;29.30;;;;;;5267080;28;20208;-45
2023/08/23 08:24:28;;;;;;;1.83;1.63;;;40.70;29.60;;;;;;5267498;28;20189;-45
2023/08/23 08:27:01;;;;;;;1.60;1.50;;;40.70;29.50;;;;;;5264815;28;20207;-46
2023/08/23 08:29:31;;;;;;;2.67;2.10;;;40.50;29.70;;;;;;5271363;28;20177;-46
2023/08/23 08:32:02;;;;;;;2.80;1.58;;;39.90;30.50;;;;;;5268509;28;20324;-46
2023/08/23 08:34:33;;;;;;;2.65;2.45;;;39.00;31.50;;;;;;5270093;28;20224;-47
2023/08/23 08:37:06;;;;;;;3.42;2.58;;;38.00;33.20;;;;;;5266312;28;20276;-46
2023/08/23 08:39:36;;;;;;;4.10;2.80;;;36.60;35.40;;;;;;5264096;28;20178;-47
2023/08/23 08:42:08;;;;;;;5.53;2.07;;;35.50;37.10;;;;;;5266448;28;20628;-45
2023/08/23 08:44:39;;;;;;;3.03;1.93;;;34.50;38.80;;;;;;5268731;28;20238;-45
2023/08/23 08:47:10;;;;;;;7.77;2.97;;;33.50;40.70;;;;;;5270381;28;20587;-46
2023/08/23 08:49:41;;;;;;;3.37;3.07;;;32.40;42.40;;;;;;5266407;28;20261;-46
2023/08/23 08:52:14;;;;;;;9.00;2.60;;;31.10;44.40;;;;;;5270019;28;20295;-46
2023/08/23 08:54:47;;;;;;;3.87;2.50;;;30.10;46.30;;;;;;5271007;28;20173;-45
2023/08/23 08:57:19;;;;;;;7.50;2.47;;;29.30;48.40;;;;;;5270587;28;20455;-46
2023/08/23 08:59:51;;;;;;;8.03;2.70;;;28.70;49.10;;;;;;5267500;28;20443;-46
2023/08/23 09:02:25;;;;;;;5.77;2.63;;;28.30;50.00;;;;;;5269336;28;20955;-46
2023/08/23 09:04:56;;;;;;;2.30;2.10;;;27.90;50.70;;;;;;5276238;28;20435;-44
2023/08/23 09:07:27;;;;;;;2.37;2.20;;;27.80;51.10;;;;;;5277771;28;20435;-45
2023/08/23 09:09:58;;;;;;;3.50;2.57;;;27.80;51.70;;;;;;5272039;28;20581;-45
2023/08/23 09:12:29;;;;;;;5.50;2.50;;;27.70;51.60;;;;;;5270358;28;20518;-45
2023/08/23 09:15:04;;;;;;;11.60;2.80;;;27.40;52.30;;;;;;5270634;28;20192;-45
2023/08/23 09:17:36;;;;;;;2.83;2.60;;;27.10;52.20;;;;;;5269696;28;20581;-45
2023/08/23 09:20:08;;;;;;;2.50;1.60;;;27.10;52.80;;;;;;5270811;28;20441;-46
2023/08/23 09:22:39;;;;;;;2.83;1.90;;;27.00;53.30;;;;;;5273538;28;20540;-47
2023/08/23 09:25:10;;;;;;;14.73;2.37;;;27.40;53.10;;;;;;5289375;28;20938;-45
2023/08/23 09:27:41;;;;;;;2.40;2.10;;;27.50;51.80;;;;;;5274577;28;20263;-45
2023/08/23 09:30:13;;;;;;;2.20;2.03;;;27.50;51.50;;;;;;5270515;28;20190;-46
2023/08/23 09:32:43;;;;;;;3.03;2.10;;;27.60;52.10;;;;;;5269159;28;20451;-45
2023/08/23 09:35:16;;;;;;;4.63;2.63;;;27.60;51.60;;;;;;5265833;28;20507;-45
2023/08/23 09:37:48;;;;;;;2.40;2.20;;;27.40;51.90;;;;;;5274660;28;20267;-45
2023/08/23 09:40:21;;;;;;;4.47;2.60;;;27.50;52.50;;;;;;5267063;28;20661;-46
2023/08/23 09:42:52;;;;;;;5.20;2.27;;;27.80;52.00;;;;;;5274025;28;20870;-46
2023/08/23 09:45:23;;;;;;;12.23;2.43;;;27.80;51.70;;;;;;5270885;28;20435;-47
2023/08/23 09:47:55;;;;;;;2.03;1.93;;;27.90;51.90;;;;;;5252716;28;20854;-46
2023/08/23 09:50:27;;;;;;;2.83;2.50;;;27.80;52.00;;;;;;5267701;28;20460;-48
2023/08/23 09:53:04;;;;;;;1.70;1.60;;;27.70;52.40;;;;;;5255499;28;20459;-45
2023/08/23 09:55:35;;;;;;;4.07;2.80;;;27.70;52.50;;;;;;5274465;28;20801;-45
2023/08/23 09:58:06;;;;;;;2.37;2.27;;;27.50;51.80;;;;;;5270923;28;20456;-45
2023/08/23 10:00:38;;;;;;;7.70;3.00;;;27.40;52.20;;;;;;5267663;28;20577;-46
2023/08/23 10:03:10;;;;;;;3.97;2.37;;;27.60;52.30;;;;;;5268523;28;20770;-46
2023/08/23 10:05:42;;;;;;;3.30;1.67;;;28.00;51.40;;;;;;5268406;28;20427;-48
2023/08/23 10:08:14;;;;;;;3.43;2.07;;;28.30;50.40;;;;;;5247704;28;20970;-46
2023/08/23 10:10:49;;;;;;;1.40;1.40;;;28.50;50.20;;;;;;5268685;28;20423;-45
2023/08/23 10:13:22;;;;;;;2.97;2.00;;;28.20;50.50;;;;;;5274094;28;20403;-48
2023/08/23 10:15:55;;;;;;;3.60;1.73;;;28.20;50.90;;;;;;5268972;28;20439;-46
2023/08/23 10:18:29;;;;;;;5.90;2.53;;;28.30;50.80;;;;;;5269333;28;20463;-45
2023/08/23 10:21:02;;;;;;;6.50;2.27;;;28.30;50.30;;;;;;5268356;28;20974;-46
2023/08/23 10:23:36;;;;;;;7.13;2.03;;;28.00;50.70;;;;;;5271190;28;20482;-45
2023/08/23 10:26:18;;;;;;;2.83;2.60;;;27.80;50.70;;;;;;5269736;28;20457;-48
2023/08/23 10:28:52;;;;;;;7.10;1.87;;;27.70;50.50;;;;;;5267050;28;20519;-47
2023/08/23 10:31:27;;;;;;;5.40;2.33;;;27.90;49.80;;;;;;5270609;28;20511;-45
2023/08/23 10:34:00;;;;;;;1.73;1.63;;;27.90;49.10;;;;;;5274251;28;20442;-46
2023/08/23 10:36:32;;;;;;;5.93;1.70;;;27.70;49.20;;;;;;5262918;28;20475;-45
2023/08/23 10:39:03;;;;;;;1.30;1.20;;;27.50;49.70;;;;;;5267904;28;20464;-46
2023/08/23 10:41:34;;;;;;;4.80;1.80;;;27.60;49.60;;;;;;5266585;28;20472;-45
2023/08/23 10:44:15;;;;;;;10.50;1.47;;;27.40;50.00;;;;;;5268305;28;20423;-45
2023/08/23 10:46:45;;;;;;;4.43;1.63;;;27.50;50.20;;;;;;5265948;28;20431;-46
2023/08/23 10:49:20;;;;;;;2.93;1.53;;;27.40;50.60;;;;;;5269851;28;20431;-47
2023/08/23 10:51:52;;;;;;;5.80;1.90;;;27.40;50.00;;;;;;5264890;28;20206;-46
2023/08/23 10:54:24;;;;;;;4.27;2.40;;;27.10;50.00;;;;;;5266203;28;20964;-47
2023/08/23 10:56:55;;;;;;;4.00;1.60;;;26.80;50.20;;;;;;5264264;28;20443;-46
2023/08/23 10:59:25;;;;;;;2.70;1.80;;;26.70;50.60;;;;;;5268710;28;20459;-45
2023/08/23 11:01:56;;;;;;;4.73;1.90;;;26.70;50.40;;;;;;5271966;28;20205;-46
2023/08/23 11:04:27;;;;;;;3.00;1.60;;;26.70;50.00;;;;;;5269078;28;20265;-47
2023/08/23 11:06:58;;;;;;;2.33;1.37;;;26.70;50.90;;;;;;5268084;28;20670;-46
2023/08/23 11:09:29;;;;;;;1.87;1.40;;;26.70;51.20;;;;;;5267104;28;20213;-47
2023/08/23 11:12:00;;;;;;;1.20;1.20;;;26.80;51.00;;;;;;5267590;28;20601;-46
2023/08/23 11:14:30;;;;;;;4.10;2.63;;;26.80;50.50;;;;;;5263325;28;20635;-47
2023/08/23 11:17:07;;;;;;;7.07;1.40;;;26.90;51.00;;;;;;5271079;28;20273;-47
2023/08/23 11:19:38;;;;;;;2.57;2.37;;;27.00;50.70;;;;;;5271218;28;20875;-47
2023/08/23 11:22:09;;;;;;;4.20;2.50;;;26.90;50.80;;;;;;5267901;28;20854;-46
2023/08/23 11:24:40;;;;;;;5.93;2.50;;;26.90;51.30;;;;;;5267324;28;20424;-47
2023/08/23 11:27:14;;;;;;;3.30;1.60;;;27.10;51.60;;;;;;5267772;28;20549;-48
2023/08/23 11:29:45;;;;;;;3.67;2.10;;;27.30;50.60;;;;;;5267028;28;20239;-47
2023/08/23 11:32:16;;;;;;;4.40;3.43;;;27.20;50.30;;;;;;5266482;28;20485;-46
2023/08/23 11:34:47;;;;;;;2.13;1.80;;;27.40;50.00;;;;;;5264543;28;20434;-46
2023/08/23 11:37:18;;;;;;;4.17;1.37;;;27.40;49.70;;;;;;5269229;28;20495;-46
2023/08/23 11:40:07;;;;;;;1.60;1.10;;;27.40;50.10;;;;;;5262897;28;20186;-48
2023/08/23 11:42:39;;;;;;;0.80;0.80;;;27.40;49.70;;;;;;5263865;28;20217;-45
2023/08/23 11:45:10;;;;;;;1.63;1.13;;;27.40;49.80;;;;;;5245753;28;20442;-46
2023/08/23 11:47:41;;;;;;;6.43;1.93;;;27.30;49.70;;;;;;5264340;28;20526;-46
2023/08/23 11:50:12;;;;;;;1.20;1.10;;;27.30;49.40;;;;;;5268629;28;20786;-46
2023/08/23 11:52:42;;;;;;;1.60;1.33;;;27.30;49.30;;;;;;5267458;28;20268;-47
2023/08/23 11:55:21;;;;;;;1.33;1.20;;;27.30;48.90;;;;;;5268597;28;20188;-46
2023/08/23 11:57:53;;;;;;;2.20;1.27;;;27.50;49.30;;;;;;5262338;28;20316;-47
2023/08/23 12:00:24;;;;;;;1.50;1.50;;;27.60;49.50;;;;;;5261599;28;20531;-46
2023/08/23 12:02:55;;;;;;;1.50;1.40;;;27.70;49.60;;;;;;5265500;28;20554;-47
2023/08/23 12:05:26;;;;;;;5.93;1.20;;;27.80;48.80;;;;;;5245817;28;20226;-46
2023/08/23 12:07:57;;;;;;;1.50;1.40;;;28.00;47.20;;;;;;5265185;28;20189;-47
2023/08/23 12:10:27;;;;;;;5.10;1.60;;;28.10;47.00;;;;;;5264574;28;20439;-46
2023/08/23 12:12:58;;;;;;;1.23;1.10;;;27.70;47.90;;;;;;5266425;28;20634;-46
2023/08/23 12:15:29;;;;;;;1.77;1.30;;;27.40;47.90;;;;;;5267768;28;20178;-47
2023/08/23 12:18:00;;;;;;;4.63;1.90;;;27.30;48.10;;;;;;5264447;28;20866;-46
2023/08/23 12:20:30;;;;;;;1.90;0.97;;;27.30;48.60;;;;;;5267845;28;20177;-45
2023/08/23 12:23:01;;;;;;;1.00;1.00;;;27.30;46.80;;;;;;5270643;28;20256;-46
2023/08/23 12:25:32;;;;;;;1.07;1.07;;;27.40;46.20;;;;;;5266782;28;20678;-47
2023/08/23 12:28:02;;;;;;;1.07;0.93;;;27.50;45.40;;;;;;5269421;28;20679;-46
2023/08/23 12:30:33;;;;;;;1.10;1.00;;;27.60;45.70;;;;;;5265714;28;20178;-47
2023/08/23 12:33:05;;;;;;;0.90;0.90;;;27.70;46.20;;;;;;5263698;28;20185;-46
2023/08/23 12:35:35;;;;;;;2.30;1.00;;;27.90;45.80;;;;;;5262026;28;20193;-47
2023/08/23 12:38:06;;;;;;;1.20;1.10;;;28.10;45.80;;;;;;5266884;28;20460;-46
2023/08/23 12:40:38;;;;;;;2.40;1.20;;;28.10;45.90;;;;;;5271424;28;20181;-47
2023/08/23 12:43:09;;;;;;;2.20;1.43;;;28.20;45.10;;;;;;5267037;28;20768;-46
2023/08/23 12:45:39;;;;;;;1.20;1.20;;;28.20;45.20;;;;;;5265313;28;20523;-46
2023/08/23 12:48:10;;;;;;;2.50;1.53;;;28.20;45.50;;;;;;5263687;28;20659;-45
2023/08/23 12:50:41;;;;;;;0.77;0.77;;;28.10;45.70;;;;;;5268471;28;20185;-47
2023/08/23 12:53:12;;;;;;;3.77;1.73;;;27.70;46.00;;;;;;5255238;28;20185;-46
2023/08/23 12:55:43;;;;;;;1.13;1.13;;;27.60;46.90;;;;;;5272182;28;20209;-47
2023/08/23 12:58:14;;;;;;;1.63;1.53;;;27.50;47.50;;;;;;5265514;28;20202;-46
2023/08/23 13:00:45;;;;;;;3.90;0.90;;;27.20;47.20;;;;;;5270231;28;20531;-46
2023/08/23 13:03:16;;;;;;;2.80;1.07;;;27.10;47.70;;;;;;5268649;28;20642;-45
2023/08/23 13:05:46;;;;;;;1.27;1.27;;;27.00;47.90;;;;;;5268155;28;20186;-46
2023/08/23 13:08:17;;;;;;;1.50;1.43;;;27.00;47.90;;;;;;5266792;28;20197;-45